Time;durP1;ratioP1;P1;durP2;ratioP2;P2;SDS_P1;SDS_P2;PMS_P1;PMS_P2;Temp;Humidity;BMP_temperature;BMP_pressure;BME280_temperature;BME280_humidity;BME280_pressure;Samples;Min_cycle;Max_cycle;Signal;HPM_P1;HPM_P2
2022/04/23 00:00:51;;;;;;;4.68;3.65;;;16.60;60.10;;;;;;5097751;28;20032;-75
2022/04/23 00:03:18;;;;;;;4.90;3.78;;;16.50;60.00;;;;;;5075588;28;20476;-75
2022/04/23 00:05:44;;;;;;;4.47;3.60;;;16.50;60.10;;;;;;5078691;28;20033;-74
2022/04/23 00:08:10;;;;;;;5.35;3.88;;;16.50;60.20;;;;;;5085054;28;20473;-75
2022/04/23 00:10:37;;;;;;;4.75;3.60;;;16.50;60.20;;;;;;5056878;28;20124;-75
2022/04/23 00:13:04;;;;;;;4.80;3.75;;;16.40;60.30;;;;;;5101074;28;20114;-75
2022/04/23 00:15:37;;;;;;;4.60;3.53;;;16.40;60.30;;;;;;5087434;28;20016;-74
2022/04/23 00:18:08;;;;;;;5.35;3.80;;;16.40;60.30;;;;;;5077460;28;20036;-77
2022/04/23 00:20:35;;;;;;;5.22;3.88;;;16.40;60.30;;;;;;5075366;28;20128;-75
2022/04/23 00:23:01;;;;;;;4.50;3.60;;;16.40;60.40;;;;;;5084708;28;20059;-76
2022/04/23 00:25:27;;;;;;;5.00;3.72;;;16.30;61.10;;;;;;5093311;28;20064;-77
2022/04/23 00:27:53;;;;;;;4.70;3.80;;;16.30;60.50;;;;;;5070039;28;20423;-76
2022/04/23 00:30:19;;;;;;;5.70;4.15;;;16.30;60.50;;;;;;5069678;28;20036;-75
2022/04/23 00:32:45;;;;;;;4.93;4.03;;;16.30;60.60;;;;;;5093871;28;20031;-77
2022/04/23 00:35:17;;;;;;;5.65;3.80;;;16.30;60.60;;;;;;5079164;28;20020;-76
2022/04/23 00:37:45;;;;;;;5.00;3.85;;;16.20;61.30;;;;;;5084505;28;20056;-74
2022/04/23 00:40:18;;;;;;;5.32;4.00;;;16.20;60.70;;;;;;5083657;28;20040;-75
2022/04/23 00:42:55;;;;;;;5.28;3.70;;;16.20;60.70;;;;;;5094197;28;20480;-75
2022/04/23 00:45:30;;;;;;;5.68;4.32;;;16.20;60.70;;;;;;5092089;28;20472;-75
2022/04/23 00:47:56;;;;;;;4.97;3.97;;;16.10;60.70;;;;;;5090145;28;20249;-75
2022/04/23 00:50:22;;;;;;;5.38;4.07;;;16.10;60.70;;;;;;5088528;28;20032;-75
2022/04/23 00:52:50;;;;;;;5.50;4.22;;;16.10;60.70;;;;;;5071651;28;20465;-76
2022/04/23 00:55:18;;;;;;;6.10;4.50;;;16.00;60.70;;;;;;5092845;28;20087;-76
2022/04/23 00:57:44;;;;;;;5.97;4.65;;;16.10;60.90;;;;;;5086947;28;20051;-75
2022/04/23 01:00:10;;;;;;;6.13;4.63;;;16.00;60.80;;;;;;5092354;28;20035;-75
2022/04/23 01:02:37;;;;;;;6.05;4.60;;;16.00;60.70;;;;;;5068140;28;20495;-76
2022/04/23 01:05:09;;;;;;;5.43;4.03;;;16.00;60.80;;;;;;5087199;28;20016;-75
2022/04/23 01:07:42;;;;;;;7.30;5.05;;;16.00;60.90;;;;;;5078320;28;20082;-76
2022/04/23 01:10:10;;;;;;;6.50;4.55;;;15.90;60.80;;;;;;5091429;28;20035;-77
2022/04/23 01:12:37;;;;;;;6.32;5.13;;;15.90;60.80;;;;;;5093603;28;20019;-75
2022/04/23 01:15:05;;;;;;;6.38;4.82;;;15.90;60.90;;;;;;5069894;28;20051;-76
2022/04/23 01:17:32;;;;;;;5.85;4.68;;;15.90;60.90;;;;;;5093904;28;20114;-76
2022/04/23 01:20:05;;;;;;;6.93;5.03;;;15.90;61.00;;;;;;5094796;28;20142;-75
2022/04/23 01:22:33;;;;;;;6.38;5.05;;;15.80;61.00;;;;;;5098874;28;20063;-76
2022/04/23 01:25:00;;;;;;;6.20;4.85;;;15.80;61.10;;;;;;5075124;28;20109;-76
2022/04/23 01:27:30;;;;;;;5.93;4.75;;;15.80;61.10;;;;;;5057488;28;20028;-77
2022/04/23 01:29:57;;;;;;;7.07;5.00;;;15.80;61.10;;;;;;5083960;28;20036;-77
2022/04/23 01:32:23;;;;;;;5.72;5.05;;;15.80;61.40;;;;;;5086130;28;20031;-76
2022/04/23 01:34:49;;;;;;;6.70;5.45;;;15.70;61.20;;;;;;5057891;28;20056;-76
2022/04/23 01:37:17;;;;;;;7.30;5.25;;;15.70;61.20;;;;;;5092458;28;20109;-76
2022/04/23 01:39:44;;;;;;;6.65;5.35;;;15.70;61.20;;;;;;5083768;28;20028;-76
2022/04/23 01:42:10;;;;;;;7.10;5.45;;;15.60;61.30;;;;;;5088587;28;20031;-77
2022/04/23 01:44:36;;;;;;;6.45;5.35;;;15.60;61.30;;;;;;5084433;28;20028;-76
2022/04/23 01:47:02;;;;;;;7.22;5.15;;;15.60;61.40;;;;;;5089705;28;20077;-75
2022/04/23 01:49:28;;;;;;;6.30;4.68;;;15.60;61.40;;;;;;5088667;28;20039;-77
2022/04/23 01:51:54;;;;;;;6.10;5.15;;;15.60;61.40;;;;;;5057244;28;20431;-76
2022/04/23 01:54:20;;;;;;;6.03;5.07;;;15.60;61.40;;;;;;5056201;28;20128;-76
2022/04/23 01:56:45;;;;;;;6.88;5.60;;;15.50;61.40;;;;;;5078847;28;20059;-75
2022/04/23 01:59:11;;;;;;;6.85;5.60;;;15.50;61.30;;;;;;5085889;27;20024;-78
2022/04/23 02:01:37;;;;;;;6.63;5.68;;;15.50;61.20;;;;;;5093775;28;20030;-76
2022/04/23 02:04:06;;;;;;;6.75;5.53;;;15.50;61.30;;;;;;5069739;28;20180;-76
2022/04/23 02:06:33;;;;;;;6.55;5.10;;;15.50;61.40;;;;;;5094565;28;20039;-78
2022/04/23 02:09:00;;;;;;;7.22;5.78;;;15.40;61.30;;;;;;5091654;28;20024;-76
2022/04/23 02:11:26;;;;;;;6.72;5.55;;;15.40;61.30;;;;;;5091779;28;20054;-77
2022/04/23 02:13:52;;;;;;;6.93;5.60;;;15.40;61.30;;;;;;5085006;28;20051;-75
2022/04/23 02:16:18;;;;;;;6.90;5.85;;;15.40;61.30;;;;;;5076387;28;20453;-77
2022/04/23 02:18:45;;;;;;;7.25;6.10;;;15.40;61.30;;;;;;5079277;28;20578;-76
2022/04/23 02:21:11;;;;;;;6.78;5.80;;;15.40;61.30;;;;;;5089655;28;20044;-75
2022/04/23 02:23:37;;;;;;;6.72;5.20;;;15.40;61.30;;;;;;5107194;27;20465;-75
2022/04/23 02:26:04;;;;;;;6.85;5.32;;;15.30;61.30;;;;;;5075868;28;20021;-77
2022/04/23 02:28:29;;;;;;;6.63;5.32;;;15.40;61.40;;;;;;5076552;28;20031;-75
2022/04/23 02:30:56;;;;;;;7.05;5.75;;;15.30;61.30;;;;;;5071198;28;20040;-76
2022/04/23 02:33:22;;;;;;;6.95;5.75;;;15.30;61.30;;;;;;5090003;28;20040;-76
2022/04/23 02:35:50;;;;;;;7.18;6.10;;;15.30;61.40;;;;;;5094092;28;20093;-75
2022/04/23 02:38:17;;;;;;;7.40;5.95;;;15.30;61.40;;;;;;5074604;28;20028;-76
2022/04/23 02:40:46;;;;;;;7.43;5.97;;;15.30;61.40;;;;;;5078722;28;20032;-76
2022/04/23 02:43:12;;;;;;;7.47;6.47;;;15.20;61.30;;;;;;5064215;28;20036;-77
2022/04/23 02:45:42;;;;;;;7.50;6.50;;;15.20;61.30;;;;;;5077122;28;20074;-75
2022/04/23 02:48:11;;;;;;;7.45;6.22;;;15.20;61.40;;;;;;5084020;28;20380;-76
2022/04/23 02:50:38;;;;;;;7.15;6.18;;;15.20;61.40;;;;;;5077118;28;20552;-76
2022/04/23 02:53:07;;;;;;;7.68;6.30;;;15.20;61.40;;;;;;5087698;28;20039;-76
2022/04/23 02:55:35;;;;;;;7.97;6.43;;;15.20;61.40;;;;;;5092594;28;20488;-76
2022/04/23 02:58:12;;;;;;;7.32;6.10;;;15.20;61.40;;;;;;5091305;28;20108;-75
2022/04/23 03:00:41;;;;;;;7.45;6.40;;;15.20;61.50;;;;;;5088042;28;20041;-76
2022/04/23 03:03:08;;;;;;;7.85;6.40;;;15.20;61.40;;;;;;5090284;28;20031;-75
2022/04/23 03:05:34;;;;;;;8.13;6.30;;;15.20;61.50;;;;;;5064178;28;20029;-76
2022/04/23 03:08:00;;;;;;;8.48;6.80;;;15.10;61.50;;;;;;5102522;28;20489;-75
2022/04/23 03:10:27;;;;;;;7.90;6.60;;;15.10;61.50;;;;;;5069416;28;20112;-76
2022/04/23 03:12:55;;;;;;;8.20;6.95;;;15.10;61.50;;;;;;5066663;28;20330;-76
2022/04/23 03:15:21;;;;;;;8.00;6.85;;;15.10;61.50;;;;;;5098011;28;20036;-76
2022/04/23 03:17:47;;;;;;;7.97;6.55;;;15.10;61.50;;;;;;5099020;28;20024;-76
2022/04/23 03:20:14;;;;;;;8.05;7.05;;;15.10;61.50;;;;;;5072315;28;20512;-76
2022/04/23 03:22:40;;;;;;;7.40;6.32;;;15.10;61.50;;;;;;5092231;28;20030;-77
2022/04/23 03:25:08;;;;;;;8.00;6.68;;;15.00;61.40;;;;;;5089937;28;20048;-77
2022/04/23 03:27:34;;;;;;;8.60;7.18;;;15.10;61.60;;;;;;5095559;28;20129;-76
2022/04/23 03:30:00;;;;;;;7.65;6.80;;;15.00;61.50;;;;;;5095330;28;20047;-76
2022/04/23 03:32:26;;;;;;;8.25;6.70;;;15.00;61.50;;;;;;5082214;28;20047;-75
2022/04/23 03:34:52;;;;;;;7.53;6.55;;;15.00;61.50;;;;;;5074120;28;20040;-77
2022/04/23 03:37:18;;;;;;;8.10;6.45;;;15.00;61.60;;;;;;5097074;28;20082;-77
2022/04/23 03:39:44;;;;;;;7.57;6.47;;;15.00;61.60;;;;;;5099000;28;20023;-76
2022/04/23 03:42:11;;;;;;;8.05;6.45;;;15.00;61.60;;;;;;5107150;27;20077;-77
2022/04/23 03:44:37;;;;;;;8.52;7.00;;;15.00;61.60;;;;;;5084686;28;20027;-77
2022/04/23 03:47:03;;;;;;;8.35;6.95;;;14.90;61.60;;;;;;5069633;28;20393;-78
2022/04/23 03:49:29;;;;;;;8.05;6.80;;;14.90;61.60;;;;;;5097855;28;20031;-77
2022/04/23 03:51:59;;;;;;;8.18;7.18;;;14.90;61.60;;;;;;5076623;28;20036;-77
2022/04/23 03:54:25;;;;;;;9.15;7.40;;;14.90;61.60;;;;;;5090788;28;20024;-77
2022/04/23 03:56:52;;;;;;;7.75;6.55;;;14.90;61.60;;;;;;5085759;28;20027;-76
2022/04/23 03:59:21;;;;;;;8.93;7.47;;;14.90;61.60;;;;;;5103998;28;20055;-76
2022/04/23 04:01:55;;;;;;;9.10;7.22;;;14.80;61.70;;;;;;5083713;28;20028;-78
2022/04/23 04:04:22;;;;;;;9.18;7.13;;;14.90;61.80;;;;;;5079820;28;20029;-76
2022/04/23 04:06:47;;;;;;;8.45;7.35;;;14.80;61.70;;;;;;5090416;28;20016;-76
2022/04/23 04:09:13;;;;;;;8.43;7.13;;;14.80;61.70;;;;;;5069219;28;20025;-77
2022/04/23 04:14:23;;;;;;;8.27;7.18;;;14.70;61.70;;;;;;5095245;28;20036;-77
2022/04/23 04:16:50;;;;;;;7.90;7.05;;;14.80;61.90;;;;;;5070506;28;20358;-76
2022/04/23 04:19:16;;;;;;;8.27;7.20;;;14.70;61.80;;;;;;5088039;28;20024;-77
2022/04/23 04:21:43;;;;;;;8.15;7.07;;;14.70;61.80;;;;;;5087052;28;20036;-77
2022/04/23 04:24:13;;;;;;;8.40;7.20;;;14.70;61.80;;;;;;5093233;28;20468;-77
2022/04/23 04:26:40;;;;;;;9.07;7.28;;;14.70;61.90;;;;;;5087241;28;20077;-76
2022/04/23 04:29:06;;;;;;;8.27;7.05;;;14.70;61.80;;;;;;5091268;28;20059;-77
2022/04/23 04:31:48;;;;;;;8.27;7.28;;;14.70;61.90;;;;;;5080601;28;20036;-76
2022/04/23 04:34:18;;;;;;;8.75;7.47;;;14.60;61.80;;;;;;5086903;28;20027;-76
2022/04/23 04:36:48;;;;;;;7.85;7.05;;;14.60;61.90;;;;;;5093166;28;20028;-75
2022/04/23 04:39:15;;;;;;;7.75;6.63;;;14.60;61.90;;;;;;5090415;28;20020;-77
2022/04/23 04:41:41;;;;;;;8.45;7.07;;;14.60;61.90;;;;;;5098533;28;20074;-77
2022/04/23 04:44:08;;;;;;;8.00;7.20;;;14.60;61.90;;;;;;5094729;28;20054;-77
2022/04/23 04:46:34;;;;;;;8.73;7.10;;;14.60;62.00;;;;;;5077182;28;20020;-77
2022/04/23 04:49:01;;;;;;;8.88;7.40;;;14.50;61.90;;;;;;5087725;28;20066;-76
2022/04/23 04:51:27;;;;;;;8.73;7.05;;;14.60;62.00;;;;;;5076158;28;20471;-77
2022/04/23 04:53:53;;;;;;;8.52;7.45;;;14.50;62.00;;;;;;5078929;28;20036;-76
2022/04/23 04:56:19;;;;;;;8.93;7.20;;;14.50;62.00;;;;;;5070887;28;20027;-77
2022/04/23 04:58:46;;;;;;;9.35;7.68;;;14.50;62.00;;;;;;5086858;28;20085;-75
2022/04/23 05:01:12;;;;;;;8.05;6.93;;;14.50;62.00;;;;;;5078359;28;20046;-75
2022/04/23 05:03:40;;;;;;;8.27;6.97;;;14.50;62.00;;;;;;5070820;28;20031;-76
2022/04/23 05:06:12;;;;;;;8.65;7.25;;;14.50;62.00;;;;;;5048372;28;20106;-76
2022/04/23 05:08:38;;;;;;;7.72;6.63;;;14.40;62.00;;;;;;5097204;28;20047;-76
2022/04/23 05:11:04;;;;;;;7.70;6.65;;;14.40;62.00;;;;;;5079633;28;20089;-76
2022/04/23 05:13:31;;;;;;;8.80;7.30;;;14.40;62.00;;;;;;5094758;28;20052;-76
2022/04/23 05:15:57;;;;;;;8.48;7.20;;;14.40;62.10;;;;;;5086301;28;20055;-77
2022/04/23 05:18:23;;;;;;;8.38;7.22;;;14.40;62.00;;;;;;5076822;28;20539;-75
2022/04/23 05:20:49;;;;;;;8.15;6.90;;;14.40;62.00;;;;;;5046335;28;20049;-76
2022/04/23 05:23:14;;;;;;;8.65;7.07;;;14.40;62.10;;;;;;5094742;28;20035;-76
2022/04/23 05:25:40;;;;;;;8.45;7.10;;;14.30;62.10;;;;;;5079368;28;20101;-75
2022/04/23 05:28:06;;;;;;;8.70;7.20;;;14.30;62.10;;;;;;5070886;28;20024;-75
2022/04/23 05:30:32;;;;;;;8.45;7.18;;;14.30;62.10;;;;;;5076681;28;20047;-76
2022/04/23 05:32:58;;;;;;;7.85;6.78;;;14.30;62.10;;;;;;5079298;28;20032;-77
2022/04/23 05:35:23;;;;;;;8.50;7.22;;;14.30;62.20;;;;;;5075300;28;20036;-75
2022/04/23 05:37:49;;;;;;;7.90;6.38;;;14.30;62.30;;;;;;5080928;28;20033;-76
2022/04/23 05:40:15;;;;;;;8.15;6.90;;;14.30;62.20;;;;;;5070696;28;20051;-77
2022/04/23 05:42:40;;;;;;;8.32;7.32;;;14.30;62.30;;;;;;5075461;28;20082;-77
2022/04/23 05:45:06;;;;;;;7.93;6.65;;;14.30;62.30;;;;;;5072858;28;20389;-76
2022/04/23 05:47:32;;;;;;;8.43;6.82;;;14.30;62.30;;;;;;5082826;28;20205;-77
2022/04/23 05:49:58;;;;;;;7.57;6.68;;;14.30;62.30;;;;;;5091017;28;20042;-77
2022/04/23 05:52:24;;;;;;;7.82;7.03;;;14.30;62.30;;;;;;5073490;28;20043;-76
2022/04/23 05:54:49;;;;;;;8.05;6.70;;;14.20;62.30;;;;;;5075561;28;20067;-76
2022/04/23 05:57:16;;;;;;;7.78;6.65;;;14.20;62.30;;;;;;5091697;28;20032;-77
2022/04/23 05:59:42;;;;;;;8.35;6.93;;;14.20;62.30;;;;;;5089022;28;20042;-78
2022/04/23 06:02:08;;;;;;;7.93;6.88;;;14.20;62.40;;;;;;5087956;28;20471;-77
2022/04/23 06:04:34;;;;;;;8.95;7.38;;;14.20;62.40;;;;;;5081597;28;20127;-76
2022/04/23 06:06:59;;;;;;;8.02;6.95;;;14.20;62.40;;;;;;5058004;28;20803;-76
2022/04/23 06:09:25;;;;;;;8.40;6.65;;;14.20;63.10;;;;;;5094546;28;20031;-76
2022/04/23 06:11:51;;;;;;;7.97;7.00;;;14.20;62.50;;;;;;5086144;28;20067;-83
2022/04/23 06:14:17;;;;;;;8.25;6.57;;;14.20;62.50;;;;;;5063683;28;20023;-76
2022/04/23 06:16:42;;;;;;;8.32;6.25;;;14.20;62.50;;;;;;5068344;28;20025;-78
2022/04/23 06:19:08;;;;;;;8.35;6.88;;;14.20;62.50;;;;;;5040901;28;20035;-76
2022/04/23 06:21:34;;;;;;;7.97;7.18;;;14.20;62.60;;;;;;5095893;28;20048;-77
2022/04/23 06:23:59;;;;;;;8.25;6.35;;;14.20;62.60;;;;;;5082886;28;20067;-76
2022/04/23 06:26:26;;;;;;;8.27;6.95;;;14.20;62.60;;;;;;5096810;28;20080;-77
2022/04/23 06:28:52;;;;;;;7.65;6.68;;;14.20;62.60;;;;;;5082798;28;20029;-76
2022/04/23 06:31:17;;;;;;;7.72;6.85;;;14.10;62.60;;;;;;5087795;28;20091;-76
2022/04/23 06:33:43;;;;;;;7.82;6.80;;;14.10;62.60;;;;;;5081139;28;20024;-76
2022/04/23 06:36:13;;;;;;;7.90;6.53;;;14.20;62.70;;;;;;5085955;28;20124;-76
2022/04/23 06:38:39;;;;;;;8.93;7.22;;;14.10;62.60;;;;;;5088316;28;20071;-78
2022/04/23 06:41:05;;;;;;;7.82;6.75;;;14.20;62.70;;;;;;5096055;28;20043;-77
2022/04/23 06:43:31;;;;;;;8.25;6.80;;;14.10;62.70;;;;;;5078013;28;20031;-76
2022/04/23 06:46:01;;;;;;;8.30;6.72;;;14.20;62.80;;;;;;5096181;28;20016;-77
2022/04/23 06:48:27;;;;;;;7.80;6.43;;;14.20;62.80;;;;;;5101097;28;20115;-78
2022/04/23 06:50:53;;;;;;;7.13;6.13;;;14.20;62.80;;;;;;5096823;28;20128;-76
2022/04/23 06:53:18;;;;;;;7.78;6.82;;;14.20;62.80;;;;;;5072227;28;20115;-77
2022/04/23 06:55:44;;;;;;;7.82;6.88;;;14.20;62.90;;;;;;5076015;28;20168;-76
2022/04/23 06:58:11;;;;;;;7.47;6.45;;;14.20;62.90;;;;;;5081410;28;20149;-76
2022/04/23 07:00:40;;;;;;;8.18;6.70;;;14.20;62.90;;;;;;5074593;28;20035;-78
2022/04/23 07:03:06;;;;;;;7.63;6.25;;;14.20;62.90;;;;;;5083741;28;20696;-77
2022/04/23 07:05:32;;;;;;;7.75;6.45;;;14.20;62.90;;;;;;5084241;28;20020;-77
2022/04/23 07:08:01;;;;;;;7.97;6.78;;;14.20;62.90;;;;;;5059502;28;20499;-77
2022/04/23 07:10:28;;;;;;;7.47;6.45;;;14.20;63.00;;;;;;5100359;28;20028;-78
2022/04/23 07:12:55;;;;;;;8.00;6.63;;;14.20;63.00;;;;;;5102050;28;20495;-76
2022/04/23 07:15:22;;;;;;;7.57;6.47;;;14.20;63.00;;;;;;5096995;28;20104;-77
2022/04/23 07:17:49;;;;;;;7.53;6.63;;;14.20;63.00;;;;;;5087582;28;20036;-77
2022/04/23 07:20:16;;;;;;;8.10;6.97;;;14.30;63.10;;;;;;5082669;28;20123;-79
2022/04/23 07:25:38;;;;;;;8.20;6.80;;;14.20;63.10;;;;;;5066207;28;20086;-78
2022/04/23 07:28:05;;;;;;;8.35;6.63;;;14.20;63.10;;;;;;5106855;27;20132;-75
2022/04/23 07:30:35;;;;;;;7.80;6.82;;;14.30;63.20;;;;;;5097705;28;20073;-81
2022/04/23 07:33:01;;;;;;;8.15;6.93;;;14.30;63.30;;;;;;5089135;28;20028;-76
2022/04/23 07:38:13;;;;;;;7.63;6.53;;;14.30;63.30;;;;;;5073227;28;20040;-78
2022/04/23 07:40:40;;;;;;;8.48;7.10;;;14.30;63.30;;;;;;5044654;28;20029;-78
2022/04/23 07:43:11;;;;;;;7.65;6.60;;;14.30;63.40;;;;;;5098468;28;20476;-78
2022/04/23 07:45:38;;;;;;;7.78;6.78;;;14.30;63.40;;;;;;5081761;28;20118;-79
2022/04/23 07:48:05;;;;;;;8.45;6.85;;;14.40;63.40;;;;;;5089511;28;20453;-77
2022/04/23 07:50:32;;;;;;;8.35;7.25;;;14.40;63.40;;;;;;5090972;28;20039;-77
2022/04/23 07:52:58;;;;;;;8.80;7.13;;;14.40;63.40;;;;;;5101373;28;20027;-78
2022/04/23 07:55:24;;;;;;;8.57;7.25;;;14.40;63.40;;;;;;5100765;28;20482;-78
2022/04/23 07:57:50;;;;;;;7.47;6.53;;;14.40;63.40;;;;;;5085418;28;20024;-78
2022/04/23 08:00:16;;;;;;;9.25;7.45;;;14.40;63.40;;;;;;5096483;28;20027;-77
2022/04/23 08:02:41;;;;;;;8.13;7.05;;;14.40;63.40;;;;;;5083072;28;20032;-77
2022/04/23 08:05:12;;;;;;;8.02;6.75;;;14.50;63.50;;;;;;5091821;28;20059;-79
2022/04/23 08:07:43;;;;;;;8.32;7.25;;;14.50;63.50;;;;;;5092165;28;20076;-78
2022/04/23 08:10:09;;;;;;;8.82;7.28;;;14.60;63.50;;;;;;5081391;28;20080;-76
2022/04/23 08:12:36;;;;;;;9.00;7.65;;;14.60;63.50;;;;;;5090215;28;20069;-78
2022/04/23 08:15:03;;;;;;;8.98;7.43;;;14.60;63.50;;;;;;5092826;28;20039;-78
2022/04/23 08:17:29;;;;;;;8.43;7.20;;;14.60;63.40;;;;;;5084335;28;20015;-78
2022/04/23 08:19:55;;;;;;;8.43;7.43;;;14.70;63.50;;;;;;5096941;28;20040;-77
2022/04/23 08:22:21;;;;;;;8.82;7.47;;;14.70;63.40;;;;;;5094666;28;20469;-78
2022/04/23 08:24:46;;;;;;;8.63;7.55;;;14.70;63.40;;;;;;5051994;28;20025;-78
2022/04/23 08:27:12;;;;;;;8.30;7.15;;;14.80;63.40;;;;;;5075177;28;20092;-78
2022/04/23 08:32:22;;;;;;;8.50;7.28;;;14.90;63.40;;;;;;5066850;28;20071;-79
2022/04/23 08:34:48;;;;;;;9.10;7.57;;;14.90;63.30;;;;;;5089304;28;20051;-78
2022/04/23 08:37:13;;;;;;;9.02;7.25;;;15.00;63.30;;;;;;5055215;28;20118;-77
2022/04/23 08:39:42;;;;;;;8.20;7.25;;;15.00;63.30;;;;;;5084654;28;20051;-78
2022/04/23 08:42:09;;;;;;;9.15;7.82;;;15.10;63.30;;;;;;5093092;28;20553;-78
2022/04/23 08:44:35;;;;;;;9.57;7.55;;;15.10;63.20;;;;;;5088197;28;20069;-79
2022/04/23 08:47:01;;;;;;;8.73;7.55;;;15.20;63.20;;;;;;5080344;28;20056;-77
2022/04/23 08:49:32;;;;;;;9.43;8.18;;;15.20;63.10;;;;;;5072056;28;20062;-79
2022/04/23 08:52:22;;;;;;;8.15;7.28;;;15.30;63.20;;;;;;5089148;28;20036;-79
2022/04/23 08:54:50;;;;;;;8.70;7.60;;;15.40;63.20;;;;;;5110338;27;20036;-78
2022/04/23 08:57:16;;;;;;;9.02;7.60;;;15.40;63.00;;;;;;5076342;28;20070;-78
2022/04/23 08:59:44;;;;;;;9.23;7.50;;;15.50;63.10;;;;;;5095799;28;20064;-79
2022/04/23 09:02:13;;;;;;;8.63;7.30;;;15.60;63.00;;;;;;5094115;28;20024;-78
2022/04/23 09:04:42;;;;;;;8.63;7.55;;;15.60;63.00;;;;;;5066998;28;20040;-79
2022/04/23 09:07:26;;;;;;;8.75;7.32;;;15.70;62.90;;;;;;5079602;28;20032;-80
2022/04/23 09:09:57;;;;;;;9.10;7.72;;;15.70;62.90;;;;;;5101091;28;20035;-78
2022/04/23 09:12:25;;;;;;;9.00;7.88;;;15.80;62.80;;;;;;5095864;28;20039;-79
2022/04/23 09:14:51;;;;;;;8.45;7.50;;;15.90;62.80;;;;;;5082586;28;20020;-75
2022/04/23 09:25:40;;;;;;;8.73;7.82;;;16.20;62.70;;;;;;5089167;28;20036;-78
2022/04/23 09:28:26;;;;;;;8.77;7.47;;;16.20;62.60;;;;;;5099829;28;20032;-76
2022/04/23 09:30:54;;;;;;;8.60;7.55;;;16.20;62.60;;;;;;5100073;28;20045;-76
2022/04/23 09:33:27;;;;;;;9.13;8.13;;;16.30;62.50;;;;;;5063746;28;20081;-76
2022/04/23 09:35:56;;;;;;;8.60;7.22;;;16.40;62.60;;;;;;5096760;28;20024;-78
2022/04/23 09:38:22;;;;;;;9.10;7.88;;;16.50;62.60;;;;;;5100722;28;20370;-77
2022/04/23 09:40:59;;;;;;;9.25;7.78;;;16.50;62.50;;;;;;5087529;28;20468;-77
2022/04/23 09:43:29;;;;;;;9.55;7.72;;;16.60;62.50;;;;;;5102127;28;20060;-77
2022/04/23 09:45:59;;;;;;;11.15;8.40;;;16.70;62.40;;;;;;5080458;28;20028;-76
2022/04/23 09:48:25;;;;;;;9.50;8.05;;;16.70;62.30;;;;;;5102613;28;20028;-76
2022/04/23 09:50:51;;;;;;;8.75;7.68;;;16.80;62.30;;;;;;5096583;28;20062;-76
2022/04/23 09:53:21;;;;;;;7.82;6.97;;;16.90;62.20;;;;;;5093227;28;20031;-77
2022/04/23 09:55:51;;;;;;;9.18;8.00;;;16.90;62.20;;;;;;5087181;28;20015;-78
2022/04/23 09:58:17;;;;;;;9.65;8.18;;;17.00;62.20;;;;;;5103948;28;20088;-77
2022/04/23 10:00:47;;;;;;;8.93;8.00;;;17.10;62.10;;;;;;5077920;28;20028;-78
2022/04/23 10:03:14;;;;;;;9.45;7.88;;;17.10;62.10;;;;;;5097337;28;20404;-78
2022/04/23 10:05:40;;;;;;;8.82;7.88;;;17.20;62.10;;;;;;5100937;28;20024;-77
2022/04/23 10:08:11;;;;;;;9.20;8.05;;;17.30;62.10;;;;;;5098579;28;20434;-77
2022/04/23 10:10:42;;;;;;;9.50;8.02;;;17.30;62.00;;;;;;5100553;28;20153;-77
2022/04/23 10:13:10;;;;;;;9.95;8.88;;;17.40;61.90;;;;;;5103076;28;20035;-77
2022/04/23 10:15:37;;;;;;;9.15;8.13;;;17.50;61.90;;;;;;5095894;28;20107;-77
2022/04/23 10:18:08;;;;;;;9.07;7.85;;;17.50;61.90;;;;;;5066172;28;20036;-79
2022/04/23 10:20:34;;;;;;;9.93;8.30;;;17.60;61.90;;;;;;5093752;28;20105;-77
2022/04/23 10:23:13;;;;;;;10.13;8.40;;;17.70;61.80;;;;;;5099819;28;20036;-77
2022/04/23 10:26:37;;;;;;;9.57;8.10;;;17.70;61.80;;;;;;5104656;28;20062;-78
2022/04/23 10:29:07;;;;;;;8.32;7.28;;;17.80;61.90;;;;;;5024009;28;20030;-77
2022/04/23 10:31:33;;;;;;;9.40;7.97;;;17.80;61.70;;;;;;5001104;28;20040;-78
2022/04/23 10:33:59;;;;;;;9.02;7.82;;;17.90;61.80;;;;;;5022746;28;20032;-77
2022/04/23 10:36:24;;;;;;;8.60;7.47;;;17.90;61.80;;;;;;5074562;28;20077;-78
2022/04/23 10:39:21;;;;;;;9.82;8.18;;;17.90;61.70;;;;;;5079521;28;20025;-78
2022/04/23 10:41:50;;;;;;;9.45;7.72;;;18.00;61.90;;;;;;5079724;28;20050;-77
2022/04/23 10:44:22;;;;;;;9.60;7.97;;;18.10;61.80;;;;;;5088167;28;20024;-77
2022/04/23 10:46:49;;;;;;;9.68;8.10;;;18.10;61.70;;;;;;5086635;28;20031;-77
2022/04/23 10:49:22;;;;;;;9.23;8.23;;;18.10;61.70;;;;;;5085776;28;20410;-77
2022/04/23 10:51:55;;;;;;;9.50;8.13;;;18.20;61.80;;;;;;5099440;28;20503;-78
2022/04/23 10:54:41;;;;;;;9.00;7.68;;;18.30;61.70;;;;;;5100775;28;20587;-76
2022/04/23 10:57:13;;;;;;;9.40;7.82;;;18.30;61.70;;;;;;5100335;28;20032;-78
2022/04/23 10:59:44;;;;;;;9.80;7.28;;;18.40;61.60;;;;;;5077599;28;20122;-77
2022/04/23 11:02:20;;;;;;;9.63;8.32;;;18.50;61.50;;;;;;5110882;28;20467;-77
2022/04/23 11:13:23;;;;;;;9.23;7.50;;;18.80;61.20;;;;;;5092097;28;20028;-77
2022/04/23 11:16:09;;;;;;;9.27;7.63;;;18.90;61.20;;;;;;5067553;28;20023;-77
2022/04/23 11:18:35;;;;;;;10.05;7.70;;;18.90;61.30;;;;;;5098665;28;20096;-77
2022/04/23 11:21:26;;;;;;;9.52;8.05;;;19.00;61.20;;;;;;5101926;28;20051;-77
2022/04/23 11:23:54;;;;;;;9.60;7.78;;;19.10;61.30;;;;;;5071768;28;20040;-76
2022/04/23 11:26:22;;;;;;;9.88;8.40;;;19.10;61.10;;;;;;5077620;28;20051;-77
2022/04/23 11:29:02;;;;;;;8.63;7.63;;;19.20;61.10;;;;;;5084840;28;20472;-77
2022/04/23 11:31:28;;;;;;;8.90;7.70;;;19.30;61.10;;;;;;5071192;28;20021;-77
2022/04/23 11:33:56;;;;;;;9.07;8.00;;;19.40;61.00;;;;;;5095789;28;20081;-77
2022/04/23 11:36:27;;;;;;;9.13;7.85;;;19.40;60.90;;;;;;5102480;28;20037;-77
2022/04/23 11:38:57;;;;;;;10.05;7.80;;;19.50;61.00;;;;;;5101735;28;20129;-78
2022/04/23 11:41:30;;;;;;;10.00;8.60;;;19.50;60.90;;;;;;5099231;28;20039;-76
2022/04/23 11:43:56;;;;;;;10.75;8.50;;;19.60;60.90;;;;;;5091364;28;20028;-77
2022/04/23 11:46:22;;;;;;;9.18;7.97;;;19.70;60.90;;;;;;5082434;28;20385;-76
2022/04/23 11:48:50;;;;;;;9.23;7.75;;;19.70;60.90;;;;;;5061357;28;20118;-77
2022/04/23 11:51:19;;;;;;;9.82;7.95;;;19.80;61.00;;;;;;5084300;28;20093;-76
2022/04/23 11:53:55;;;;;;;9.35;8.10;;;19.90;61.60;;;;;;5078373;28;20020;-77
2022/04/23 11:56:29;;;;;;;9.15;7.55;;;20.00;61.10;;;;;;5077935;28;20025;-77
2022/04/23 11:58:59;;;;;;;9.02;7.95;;;20.00;61.00;;;;;;5063812;28;20027;-81
2022/04/23 12:01:27;;;;;;;9.93;8.63;;;20.10;61.10;;;;;;5085291;28;20065;-79
2022/04/23 12:03:55;;;;;;;9.35;8.07;;;20.10;61.70;;;;;;5059484;28;20463;-78
2022/04/23 12:06:22;;;;;;;9.20;8.07;;;20.20;61.10;;;;;;5078266;28;20051;-78
2022/04/23 12:08:47;;;;;;;9.65;8.07;;;20.20;61.10;;;;;;5095909;28;20029;-76
2022/04/23 12:11:26;;;;;;;10.63;9.00;;;20.30;61.10;;;;;;5075688;28;20044;-77
2022/04/23 12:13:53;;;;;;;9.80;8.35;;;20.30;60.30;;;;;;5093160;28;20078;-80
2022/04/23 12:16:31;;;;;;;10.57;9.20;;;20.40;60.00;;;;;;5071523;28;20066;-78
2022/04/23 12:18:59;;;;;;;12.30;10.43;;;20.50;60.50;;;;;;5089611;28;20043;-77
2022/04/23 12:21:25;;;;;;;11.38;9.30;;;20.50;59.80;;;;;;5088047;28;20068;-77
2022/04/23 12:23:50;;;;;;;11.50;9.45;;;20.50;60.40;;;;;;5082879;28;20091;-75
2022/04/23 12:26:23;;;;;;;10.60;9.18;;;20.60;59.80;;;;;;5102534;28;20084;-78
2022/04/23 12:42:23;;;;;;;9.53;7.93;;;20.90;60.00;;;;;;5077067;28;20132;-76
2022/04/23 12:44:51;;;;;;;9.95;8.45;;;20.90;59.90;;;;;;5094612;28;20020;-77
2022/04/23 12:47:27;;;;;;;9.70;8.23;;;20.90;59.90;;;;;;5071630;28;20109;-77
2022/04/23 12:49:56;;;;;;;12.35;8.45;;;21.00;60.00;;;;;;5098288;28;20099;-78
2022/04/23 12:52:24;;;;;;;11.23;8.57;;;21.00;60.00;;;;;;5080561;28;20032;-77
2022/04/23 12:55:10;;;;;;;9.82;8.15;;;21.10;60.00;;;;;;5072323;28;20028;-76
2022/04/23 12:57:35;;;;;;;11.00;8.30;;;21.10;60.00;;;;;;5093652;28;20029;-76
2022/04/23 13:00:01;;;;;;;10.68;8.70;;;21.10;59.90;;;;;;5083527;28;20043;-76
2022/04/23 13:02:38;;;;;;;9.90;8.00;;;21.20;60.00;;;;;;5054944;28;20028;-76
2022/04/23 13:05:05;;;;;;;8.68;7.78;;;21.30;60.00;;;;;;5065630;28;20114;-77
2022/04/23 13:10:16;;;;;;;9.95;7.80;;;21.40;60.00;;;;;;5089621;28;20115;-76
2022/04/23 13:12:43;;;;;;;9.05;8.05;;;21.40;59.90;;;;;;5096929;28;20059;-76
2022/04/23 13:15:10;;;;;;;10.05;8.35;;;21.50;59.80;;;;;;5084736;28;20060;-76
2022/04/23 13:17:38;;;;;;;9.45;7.93;;;21.50;59.80;;;;;;5100405;28;20473;-77
2022/04/23 13:20:07;;;;;;;9.15;7.68;;;21.50;59.70;;;;;;5064482;28;20066;-77
2022/04/23 13:22:33;;;;;;;9.40;8.10;;;21.60;59.70;;;;;;5099346;28;20138;-77
2022/04/23 13:24:58;;;;;;;9.52;7.60;;;21.60;59.60;;;;;;5087831;28;20055;-78
2022/04/23 13:27:25;;;;;;;9.63;8.15;;;21.70;59.60;;;;;;5101630;28;20074;-76
2022/04/23 13:29:52;;;;;;;9.05;7.68;;;21.70;59.50;;;;;;5100849;28;20499;-77
2022/04/23 13:32:18;;;;;;;9.10;8.13;;;21.70;59.50;;;;;;5076685;28;20039;-77
2022/04/23 13:34:44;;;;;;;9.20;7.97;;;21.80;59.50;;;;;;5093427;28;20444;-76